createdAt,value
2023-05-05T00:01:44.176Z,13.35
2023-05-05T00:04:12.726Z,15.18
2023-05-05T00:06:40.873Z,13.73
2023-05-05T00:09:09.207Z,13.98
2023-05-05T00:11:38.672Z,16.27
2023-05-05T00:14:07.180Z,15.95
2023-05-05T00:16:35.383Z,15.23
2023-05-05T00:19:04.146Z,15.45
2023-05-05T00:21:32.344Z,14.52
2023-05-05T00:24:00.704Z,15.02
2023-05-05T00:26:29.007Z,15.55
2023-05-05T00:28:58.731Z,16.42
2023-05-05T00:31:27.059Z,16.20
2023-05-05T00:33:56.260Z,16.13
2023-05-05T00:36:24.354Z,13.98
2023-05-05T00:38:52.702Z,14.73
2023-05-05T00:41:20.888Z,14.82
2023-05-05T00:43:49.257Z,15.75
2023-05-05T00:46:24.219Z,14.88
2023-05-05T00:48:53.021Z,16.00
2023-05-05T00:51:22.049Z,14.80
2023-05-05T00:53:50.648Z,16.15
2023-05-05T00:56:20.816Z,16.10
2023-05-05T00:58:49.421Z,16.02
2023-05-05T01:04:09.772Z,15.90
2023-05-05T01:06:46.296Z,15.82
2023-05-05T01:09:25.815Z,15.23
2023-05-05T01:12:00.167Z,15.52
2023-05-05T01:14:37.421Z,16.00
2023-05-05T01:17:11.513Z,16.30
2023-05-05T01:19:54.722Z,14.98
2023-05-05T01:22:25.853Z,17.08
2023-05-05T01:25:19.355Z,15.10
2023-05-05T01:28:05.462Z,15.10
2023-05-05T01:31:10.691Z,15.40
2023-05-05T01:33:45.475Z,15.55
2023-05-05T01:36:22.736Z,15.27
2023-05-05T01:38:54.969Z,15.63
2023-05-05T01:41:27.909Z,15.32
2023-05-05T01:43:57.106Z,15.65
2023-05-05T01:46:25.731Z,15.98
2023-05-05T01:48:57.289Z,17.25
2023-05-05T01:51:27.079Z,16.42
2023-05-05T01:53:58.432Z,15.90
2023-05-05T01:56:27.131Z,17.27
2023-05-05T01:58:56.099Z,17.08
2023-05-05T02:01:26.629Z,16.95
2023-05-05T02:03:57.797Z,16.42
2023-05-05T02:06:26.928Z,16.63
2023-05-05T02:08:58.252Z,16.55
2023-05-05T02:11:27.349Z,15.82
2023-05-05T02:13:56.229Z,16.20
2023-05-05T02:16:24.935Z,15.48
2023-05-05T02:18:54.438Z,15.85
2023-05-05T02:21:23.881Z,17.70
2023-05-05T02:23:53.563Z,15.90
2023-05-05T02:26:22.665Z,15.43
2023-05-05T02:28:56.945Z,15.95
2023-05-05T02:31:25.960Z,16.15
2023-05-05T02:33:54.944Z,15.73
2023-05-05T02:36:28.849Z,14.65
2023-05-05T02:39:01.125Z,14.50
2023-05-05T02:41:30.216Z,14.18
2023-05-05T02:43:59.295Z,14.25
2023-05-05T02:46:28.476Z,14.18
2023-05-05T02:48:56.976Z,14.07
2023-05-05T02:51:27.594Z,14.05
2023-05-05T02:53:56.274Z,13.68
2023-05-05T02:56:34.090Z,14.40
2023-05-05T02:59:09.147Z,14.98
2023-05-05T03:01:46.427Z,15.35
2023-05-05T03:04:17.449Z,15.88
2023-05-05T03:06:51.085Z,14.80
2023-05-05T03:09:24.140Z,14.52
2023-05-05T03:11:58.223Z,14.30
2023-05-05T03:14:29.009Z,14.77
2023-05-05T03:16:58.498Z,15.45
2023-05-05T03:19:27.719Z,13.32
2023-05-05T03:21:57.809Z,14.48
2023-05-05T03:24:26.153Z,16.70
2023-05-05T03:26:54.459Z,14.95
2023-05-05T03:29:22.807Z,14.95
2023-05-05T03:31:51.080Z,15.77
2023-05-05T03:34:19.486Z,15.07
2023-05-05T03:36:47.612Z,15.68
2023-05-05T03:39:18.686Z,15.45
2023-05-05T03:41:46.960Z,14.65
2023-05-05T03:44:15.278Z,14.35
2023-05-05T03:46:43.347Z,14.60
2023-05-05T03:49:11.823Z,14.35
2023-05-05T03:51:39.975Z,14.10
2023-05-05T03:54:08.518Z,14.07
2023-05-05T03:56:37.953Z,15.13
2023-05-05T03:59:06.654Z,16.60
2023-05-05T04:01:35.299Z,14.68
2023-05-05T04:04:03.735Z,15.02
2023-05-05T04:06:32.460Z,15.18
2023-05-05T04:09:00.973Z,15.38
2023-05-05T04:11:29.165Z,14.65
2023-05-05T04:13:58.879Z,15.50
2023-05-05T04:16:27.022Z,14.70
2023-05-05T04:18:56.231Z,16.48
2023-05-05T04:21:24.329Z,14.93
2023-05-05T04:23:52.817Z,15.35
2023-05-05T04:26:20.960Z,15.25
2023-05-05T04:28:49.358Z,13.63
2023-05-05T04:31:18.862Z,13.88
2023-05-05T04:33:47.415Z,14.30
2023-05-05T04:36:15.744Z,12.55
2023-05-05T04:38:44.130Z,12.20
2023-05-05T04:41:12.422Z,11.27
2023-05-05T04:43:40.913Z,11.90
2023-05-05T04:46:09.963Z,11.07
2023-05-05T04:48:39.698Z,11.30
2023-05-05T04:51:08.253Z,11.18
2023-05-05T04:53:36.625Z,10.32
2023-05-05T04:56:05.930Z,10.82
2023-05-05T04:58:34.278Z,10.10
2023-05-05T05:01:03.278Z,9.95
2023-05-05T05:03:32.160Z,9.90
2023-05-05T05:06:02.187Z,10.13
2023-05-05T05:08:30.533Z,10.60
2023-05-05T05:10:58.854Z,10.63
2023-05-05T05:13:27.253Z,10.95
2023-05-05T05:15:55.411Z,10.50
2023-05-05T05:18:23.817Z,12.00
2023-05-05T05:20:52.028Z,10.63
2023-05-05T05:23:21.752Z,9.90
2023-05-05T05:25:49.836Z,8.82
2023-05-05T05:28:18.195Z,9.05
2023-05-05T05:30:46.301Z,9.82
2023-05-05T05:33:14.666Z,10.02
2023-05-05T05:35:42.870Z,9.80
2023-05-05T05:38:11.226Z,9.95
2023-05-05T05:40:41.246Z,9.80
2023-05-05T05:43:09.745Z,10.10
2023-05-05T05:45:37.939Z,10.98
2023-05-05T05:48:07.058Z,9.60
2023-05-05T05:50:35.860Z,7.63
2023-05-05T05:53:04.235Z,8.63
2023-05-05T05:55:32.482Z,7.63
2023-05-05T05:58:02.309Z,7.88
2023-05-05T06:00:30.382Z,7.72
2023-05-05T06:02:59.068Z,8.23
2023-05-05T06:05:27.450Z,8.05
2023-05-05T06:13:47.093Z,7.43
2023-05-05T15:59:43.524Z,2.65
2023-05-05T16:02:12.356Z,2.08
2023-05-05T16:04:40.473Z,2.38
2023-05-05T16:07:08.822Z,2.33
2023-05-05T16:09:36.906Z,2.60
2023-05-05T16:12:05.958Z,2.00
2023-05-05T16:14:34.034Z,1.90
2023-05-05T16:17:04.060Z,2.13
2023-05-05T16:19:32.165Z,2.80
2023-05-05T16:22:00.629Z,3.28
2023-05-05T16:24:28.694Z,3.10
2023-05-05T16:26:57.072Z,3.25
2023-05-05T16:29:25.771Z,2.33
2023-05-05T16:31:54.181Z,2.20
2023-05-05T16:34:23.681Z,1.77
2023-05-05T16:36:53.293Z,1.98
2023-05-05T16:39:21.389Z,2.78
2023-05-05T16:41:49.701Z,3.17
2023-05-05T16:44:17.849Z,3.83
2023-05-05T16:46:46.356Z,6.07
2023-05-05T16:49:14.424Z,5.65
2023-05-05T16:51:44.458Z,6.18
2023-05-05T16:54:12.602Z,6.13
2023-05-05T16:56:40.992Z,7.53
2023-05-05T16:59:09.169Z,5.57
2023-05-05T17:01:37.543Z,7.35
2023-05-05T17:04:05.629Z,6.50
2023-05-05T17:06:34.366Z,4.90
2023-05-05T17:09:03.865Z,4.00
2023-05-05T17:11:32.241Z,2.75
2023-05-05T17:14:00.390Z,4.53
2023-05-05T17:16:28.801Z,2.78
2023-05-05T17:18:56.892Z,3.30
2023-05-05T17:21:25.472Z,3.97
2023-05-05T17:23:53.593Z,3.35
2023-05-05T17:26:24.070Z,3.95
2023-05-05T17:28:52.263Z,3.22
2023-05-05T17:31:20.959Z,4.55
2023-05-05T17:33:49.504Z,4.35
2023-05-05T17:36:17.915Z,4.78
2023-05-05T17:38:45.974Z,4.65
2023-05-05T17:41:14.295Z,4.38
2023-05-05T17:43:43.747Z,3.95
2023-05-05T17:46:12.170Z,3.45
2023-05-05T17:48:40.323Z,3.03
2023-05-05T17:51:08.855Z,2.97
2023-05-05T17:53:36.942Z,3.47
2023-05-05T17:56:07.291Z,3.53
2023-05-05T17:58:37.073Z,8.02
2023-05-05T18:01:06.828Z,14.30
2023-05-05T18:03:35.100Z,34.30
2023-05-05T18:06:03.549Z,24.33
2023-05-05T18:08:31.612Z,16.10
2023-05-05T18:10:59.999Z,13.40
2023-05-05T18:13:28.202Z,10.90
2023-05-05T18:15:56.609Z,6.43
2023-05-05T18:18:26.222Z,6.47
2023-05-05T18:20:54.675Z,6.65
2023-05-05T18:23:23.033Z,6.00
2023-05-05T18:25:51.458Z,5.30
2023-05-05T18:28:20.282Z,5.72
2023-05-05T18:30:48.678Z,5.72
2023-05-05T18:33:16.865Z,5.97
2023-05-05T18:35:46.735Z,6.45
2023-05-05T18:38:14.868Z,6.70
2023-05-05T18:40:43.201Z,6.05
2023-05-05T18:43:11.363Z,5.30
2023-05-05T18:45:39.785Z,5.47
2023-05-05T18:48:08.159Z,5.38
2023-05-05T18:50:38.246Z,4.90
2023-05-05T18:53:07.785Z,5.70
2023-05-05T18:55:36.309Z,5.28
2023-05-05T18:58:04.515Z,5.95
2023-05-05T19:00:32.927Z,5.15
2023-05-05T19:03:01.269Z,6.10
2023-05-05T19:05:29.843Z,5.70
2023-05-05T19:07:57.908Z,5.63
2023-05-05T19:10:27.717Z,5.95
2023-05-05T19:12:56.171Z,6.15
2023-05-05T19:15:24.653Z,5.78
2023-05-05T19:17:54.309Z,5.68
2023-05-05T19:20:22.856Z,4.70
2023-05-05T19:22:50.941Z,6.35
2023-05-05T19:25:19.396Z,4.90
2023-05-05T19:27:49.166Z,5.45
2023-05-05T19:30:17.703Z,5.95
2023-05-05T19:32:45.877Z,5.97
2023-05-05T19:35:14.503Z,6.32
2023-05-05T19:37:42.674Z,6.28
2023-05-05T19:40:12.740Z,6.97
2023-05-05T19:42:41.156Z,7.07
2023-05-05T19:45:11.167Z,4.88
2023-05-05T19:47:39.290Z,6.07
2023-05-05T19:50:08.461Z,6.15
2023-05-05T19:52:38.304Z,5.97
2023-05-05T19:55:07.815Z,6.30
2023-05-05T19:57:36.093Z,5.78
2023-05-05T20:00:05.413Z,6.38
2023-05-05T20:02:36.877Z,6.28
2023-05-05T20:05:06.289Z,6.13
2023-05-05T20:07:34.380Z,6.85
2023-05-05T20:10:02.752Z,7.45
2023-05-05T20:12:30.887Z,7.85
2023-05-05T20:14:59.208Z,6.80
2023-05-05T20:17:27.347Z,8.95
2023-05-05T20:19:57.613Z,9.02
2023-05-05T20:22:26.449Z,8.70
2023-05-05T20:24:54.856Z,8.45
2023-05-05T20:27:23.055Z,8.57
2023-05-05T20:29:51.412Z,8.98
2023-05-05T20:32:20.537Z,9.73
2023-05-05T20:34:49.097Z,8.68
2023-05-05T20:37:18.545Z,9.48
2023-05-05T20:39:47.312Z,10.60
2023-05-05T20:42:15.685Z,10.80
2023-05-05T20:44:44.051Z,10.10
2023-05-05T20:47:12.312Z,10.20
2023-05-05T20:49:41.304Z,10.02
2023-05-05T20:52:09.373Z,10.65
2023-05-05T20:54:39.689Z,11.27
2023-05-05T20:57:08.688Z,11.07
2023-05-05T20:59:37.190Z,10.50
2023-05-05T21:02:05.312Z,10.35
2023-05-05T21:04:34.099Z,11.05
2023-05-05T21:07:02.822Z,11.15
2023-05-05T21:09:31.368Z,10.75
2023-05-05T21:12:00.822Z,11.57
2023-05-05T21:14:29.259Z,10.55
2023-05-05T21:16:57.618Z,11.60
2023-05-05T21:19:26.073Z,11.63
2023-05-05T21:21:58.833Z,11.18
2023-05-05T21:24:27.990Z,11.25
2023-05-05T21:26:56.349Z,10.23
2023-05-05T21:29:26.512Z,10.80
2023-05-05T21:31:54.688Z,10.40
2023-05-05T21:34:23.167Z,10.75
2023-05-05T21:36:51.353Z,12.27
2023-05-05T21:39:19.670Z,11.30
2023-05-05T21:41:47.733Z,12.25
2023-05-05T21:44:16.122Z,11.18
2023-05-05T21:46:45.679Z,16.48
2023-05-05T21:49:14.779Z,12.23
2023-05-05T21:51:43.281Z,12.30
2023-05-05T21:54:12.000Z,12.48
2023-05-05T21:56:40.299Z,12.68
2023-05-05T21:59:08.940Z,11.63
2023-05-05T22:01:37.226Z,10.23
2023-05-05T22:04:07.438Z,10.50
2023-05-05T22:06:35.835Z,10.02
2023-05-05T22:09:04.679Z,10.52
2023-05-05T22:11:32.866Z,10.70
2023-05-05T22:14:01.275Z,11.02
2023-05-05T22:16:29.586Z,11.38
2023-05-05T22:18:58.159Z,10.88
2023-05-05T22:21:28.034Z,11.65
2023-05-05T22:23:56.448Z,11.55
2023-05-05T22:26:24.665Z,12.07
2023-05-05T22:28:52.997Z,11.32
2023-05-05T22:31:21.092Z,12.07
2023-05-05T22:33:49.537Z,11.38
2023-05-05T22:36:17.757Z,12.20
2023-05-05T22:38:47.464Z,13.32
2023-05-05T22:41:15.979Z,13.63
2023-05-05T22:43:44.308Z,14.38
2023-05-05T22:46:13.037Z,15.07
2023-05-05T22:48:41.552Z,13.45
2023-05-05T22:51:09.624Z,12.98
2023-05-05T22:53:39.058Z,11.95
2023-05-05T22:56:08.835Z,12.75
2023-05-05T22:58:37.399Z,11.65
2023-05-05T23:01:05.654Z,11.10
2023-05-05T23:03:34.134Z,11.25
2023-05-05T23:06:02.232Z,10.27
2023-05-05T23:08:30.614Z,10.43
2023-05-05T23:10:58.899Z,10.73
2023-05-05T23:13:28.593Z,9.20
2023-05-05T23:15:56.676Z,10.82
2023-05-05T23:18:25.197Z,10.05
2023-05-05T23:20:53.267Z,10.02
2023-05-05T23:23:21.560Z,9.32
2023-05-05T23:25:49.676Z,8.85
2023-05-05T23:28:18.435Z,8.43
2023-05-05T23:30:47.913Z,9.63
2023-05-05T23:33:16.422Z,10.05
2023-05-05T23:35:45.501Z,9.38
2023-05-05T23:38:13.982Z,9.43
2023-05-05T23:40:42.163Z,9.23
2023-05-05T23:43:11.879Z,8.95
2023-05-05T23:45:40.035Z,9.00
2023-05-05T23:48:09.841Z,9.02
2023-05-05T23:50:37.961Z,9.80
2023-05-05T23:53:06.327Z,9.50
2023-05-05T23:55:34.424Z,9.52
2023-05-05T23:58:02.870Z,9.20
